Hartland, Wisconsin
Current Conditions -  °F | °C
As of 5:45 PM on Wednesday 22 Oct 2014 (Local Time) from KUES Reporting Station
Clear Clear  
Wind Chill: 43°   Ceiling: Unl
Heat Index: 46°   Visibility: 10mi
Dew Point: 37°   Wind: 7mph
Humidity: 71%   Direction: 100°E
Pressure: 30.27"   Gusts: NA
Location:  43.1°N, 88.35°W
Report Text: KUES 222245Z 10006KT 10SM SKC 08/03 A3027
Loading
Personal Weather Stations






























Interactive Weather Map
Tropical Storm Tracking
New forecast layout! Learn more

10-Day Weather Forecast

Advertisements
Track Severe Weather on mobile